sensor_id;sensor_type;location;lat;lon;timestamp;temperature;humidity
15717;DHT22;7960;50.908;4.204;2023-02-28T00:00:50;1.40;98.90
15717;DHT22;7960;50.908;4.204;2023-02-28T00:03:17;1.40;98.90
15717;DHT22;7960;50.908;4.204;2023-02-28T00:05:44;1.40;98.90
15717;DHT22;7960;50.908;4.204;2023-02-28T00:08:11;1.40;99.30
15717;DHT22;7960;50.908;4.204;2023-02-28T00:10:38;1.40;99.10
15717;DHT22;7960;50.908;4.204;2023-02-28T00:13:06;1.30;99.10
15717;DHT22;7960;50.908;4.204;2023-02-28T00:15:34;1.40;99.10
15717;DHT22;7960;50.908;4.204;2023-02-28T00:18:01;1.40;99.10
15717;DHT22;7960;50.908;4.204;2023-02-28T00:20:29;1.30;99.20
15717;DHT22;7960;50.908;4.204;2023-02-28T00:22:56;1.30;99.20
15717;DHT22;7960;50.908;4.204;2023-02-28T00:25:24;1.40;99.40
15717;DHT22;7960;50.908;4.204;2023-02-28T00:27:52;1.30;99.40
15717;DHT22;7960;50.908;4.204;2023-02-28T00:30:20;1.40;99.40
15717;DHT22;7960;50.908;4.204;2023-02-28T00:32:49;1.30;99.40
15717;DHT22;7960;50.908;4.204;2023-02-28T00:35:16;1.30;99.70
15717;DHT22;7960;50.908;4.204;2023-02-28T00:37:43;1.20;99.40
15717;DHT22;7960;50.908;4.204;2023-02-28T00:40:11;1.20;99.80
15717;DHT22;7960;50.908;4.204;2023-02-28T00:42:39;1.10;99.60
15717;DHT22;7960;50.908;4.204;2023-02-28T00:45:07;1.20;99.80
15717;DHT22;7960;50.908;4.204;2023-02-28T00:47:34;1.20;99.80
15717;DHT22;7960;50.908;4.204;2023-02-28T00:50:03;1.10;99.80
15717;DHT22;7960;50.908;4.204;2023-02-28T00:52:30;1.10;99.90
15717;DHT22;7960;50.908;4.204;2023-02-28T00:54:57;1.10;99.90
15717;DHT22;7960;50.908;4.204;2023-02-28T00:57:24;1.10;99.90
15717;DHT22;7960;50.908;4.204;2023-02-28T00:59:51;1.20;99.90
15717;DHT22;7960;50.908;4.204;2023-02-28T01:02:19;1.20;99.90
15717;DHT22;7960;50.908;4.204;2023-02-28T01:04:46;1.10;99.90
15717;DHT22;7960;50.908;4.204;2023-02-28T01:07:14;1.10;99.90
15717;DHT22;7960;50.908;4.204;2023-02-28T01:09:41;1.10;99.90
15717;DHT22;7960;50.908;4.204;2023-02-28T01:12:08;1.10;99.90
15717;DHT22;7960;50.908;4.204;2023-02-28T01:14:35;1.10;99.90
15717;DHT22;7960;50.908;4.204;2023-02-28T01:17:03;1.10;99.90
15717;DHT22;7960;50.908;4.204;2023-02-28T01:19:30;1.10;99.90
15717;DHT22;7960;50.908;4.204;2023-02-28T01:21:56;1.00;99.90
15717;DHT22;7960;50.908;4.204;2023-02-28T01:24:25;1.00;99.90
15717;DHT22;7960;50.908;4.204;2023-02-28T01:26:51;1.00;99.90
15717;DHT22;7960;50.908;4.204;2023-02-28T01:29:18;1.10;99.90
15717;DHT22;7960;50.908;4.204;2023-02-28T01:31:45;1.00;99.90
15717;DHT22;7960;50.908;4.204;2023-02-28T01:34:12;1.00;99.90
15717;DHT22;7960;50.908;4.204;2023-02-28T01:36:39;1.00;99.90
15717;DHT22;7960;50.908;4.204;2023-02-28T01:39:06;1.00;99.90
15717;DHT22;7960;50.908;4.204;2023-02-28T01:41:34;1.00;99.90
15717;DHT22;7960;50.908;4.204;2023-02-28T01:44:05;1.00;99.90
15717;DHT22;7960;50.908;4.204;2023-02-28T01:46:33;1.00;99.90
15717;DHT22;7960;50.908;4.204;2023-02-28T01:49:05;1.00;99.90
15717;DHT22;7960;50.908;4.204;2023-02-28T01:51:37;0.90;99.90
15717;DHT22;7960;50.908;4.204;2023-02-28T01:54:08;0.90;99.90
15717;DHT22;7960;50.908;4.204;2023-02-28T01:56:44;0.80;99.90
15717;DHT22;7960;50.908;4.204;2023-02-28T01:59:17;0.90;99.90
15717;DHT22;7960;50.908;4.204;2023-02-28T02:01:47;0.90;99.90
15717;DHT22;7960;50.908;4.204;2023-02-28T02:04:13;0.80;99.90
15717;DHT22;7960;50.908;4.204;2023-02-28T02:06:43;0.90;99.90
15717;DHT22;7960;50.908;4.204;2023-02-28T02:09:11;0.90;99.90
15717;DHT22;7960;50.908;4.204;2023-02-28T02:11:41;0.90;99.90
15717;DHT22;7960;50.908;4.204;2023-02-28T02:14:40;0.80;99.90
15717;DHT22;7960;50.908;4.204;2023-02-28T02:17:23;0.80;99.90
15717;DHT22;7960;50.908;4.204;2023-02-28T02:26:19;0.60;99.90
15717;DHT22;7960;50.908;4.204;2023-02-28T02:29:14;0.60;99.90
15717;DHT22;7960;50.908;4.204;2023-02-28T02:32:04;0.70;99.90
15717;DHT22;7960;50.908;4.204;2023-02-28T02:34:52;0.70;99.90
15717;DHT22;7960;50.908;4.204;2023-02-28T02:37:27;0.70;99.90
15717;DHT22;7960;50.908;4.204;2023-02-28T02:40:02;0.60;99.90
15717;DHT22;7960;50.908;4.204;2023-02-28T02:42:36;0.70;99.90
15717;DHT22;7960;50.908;4.204;2023-02-28T02:45:09;0.60;99.90
15717;DHT22;7960;50.908;4.204;2023-02-28T02:47:39;0.60;99.90
15717;DHT22;7960;50.908;4.204;2023-02-28T02:50:13;0.60;99.90
15717;DHT22;7960;50.908;4.204;2023-02-28T02:52:44;0.50;99.90
15717;DHT22;7960;50.908;4.204;2023-02-28T02:55:13;0.50;99.90
15717;DHT22;7960;50.908;4.204;2023-02-28T02:57:45;0.50;99.90
15717;DHT22;7960;50.908;4.204;2023-02-28T03:00:14;0.50;99.90
15717;DHT22;7960;50.908;4.204;2023-02-28T03:02:43;0.50;99.90
15717;DHT22;7960;50.908;4.204;2023-02-28T03:05:19;0.40;99.90
15717;DHT22;7960;50.908;4.204;2023-02-28T03:07:46;0.40;99.90
15717;DHT22;7960;50.908;4.204;2023-02-28T03:10:35;0.50;99.90
15717;DHT22;7960;50.908;4.204;2023-02-28T03:16:10;0.40;99.90
15717;DHT22;7960;50.908;4.204;2023-02-28T03:18:47;0.30;99.90
15717;DHT22;7960;50.908;4.204;2023-02-28T03:21:25;0.20;99.90
15717;DHT22;7960;50.908;4.204;2023-02-28T03:23:57;0.30;99.90
15717;DHT22;7960;50.908;4.204;2023-02-28T03:26:27;0.30;99.90
15717;DHT22;7960;50.908;4.204;2023-02-28T03:28:58;0.40;99.90
15717;DHT22;7960;50.908;4.204;2023-02-28T03:31:31;0.40;99.90
15717;DHT22;7960;50.908;4.204;2023-02-28T03:34:04;0.40;99.90
15717;DHT22;7960;50.908;4.204;2023-02-28T03:36:37;0.40;99.90
15717;DHT22;7960;50.908;4.204;2023-02-28T03:39:13;0.40;99.90
15717;DHT22;7960;50.908;4.204;2023-02-28T03:41:42;0.40;99.90
15717;DHT22;7960;50.908;4.204;2023-02-28T03:44:17;0.40;99.90
15717;DHT22;7960;50.908;4.204;2023-02-28T03:46:51;0.30;99.90
15717;DHT22;7960;50.908;4.204;2023-02-28T03:49:23;0.20;99.90
15717;DHT22;7960;50.908;4.204;2023-02-28T03:51:53;0.20;99.90
15717;DHT22;7960;50.908;4.204;2023-02-28T03:54:26;0.20;99.90
15717;DHT22;7960;50.908;4.204;2023-02-28T03:56:58;0.20;99.90
15717;DHT22;7960;50.908;4.204;2023-02-28T03:59:29;0.20;99.90
15717;DHT22;7960;50.908;4.204;2023-02-28T04:01:57;0.20;99.90
15717;DHT22;7960;50.908;4.204;2023-02-28T04:04:24;0.20;99.90
15717;DHT22;7960;50.908;4.204;2023-02-28T04:07:01;0.10;99.90
15717;DHT22;7960;50.908;4.204;2023-02-28T04:09:28;0.10;99.90
15717;DHT22;7960;50.908;4.204;2023-02-28T04:11:55;0.10;99.90
15717;DHT22;7960;50.908;4.204;2023-02-28T04:14:23;0.00;99.90
15717;DHT22;7960;50.908;4.204;2023-02-28T04:16:50;0.10;99.90
15717;DHT22;7960;50.908;4.204;2023-02-28T04:19:18;0.10;99.90
15717;DHT22;7960;50.908;4.204;2023-02-28T04:21:46;0.00;99.90
15717;DHT22;7960;50.908;4.204;2023-02-28T04:24:17;0.10;99.90
15717;DHT22;7960;50.908;4.204;2023-02-28T04:26:46;0.00;99.90
15717;DHT22;7960;50.908;4.204;2023-02-28T04:29:17;0.00;99.90
15717;DHT22;7960;50.908;4.204;2023-02-28T04:31:44;0.00;99.90
15717;DHT22;7960;50.908;4.204;2023-02-28T04:34:11;0.10;99.90
15717;DHT22;7960;50.908;4.204;2023-02-28T04:36:38;0.10;99.90
15717;DHT22;7960;50.908;4.204;2023-02-28T04:39:05;0.10;99.90
15717;DHT22;7960;50.908;4.204;2023-02-28T04:41:33;0.10;99.90
15717;DHT22;7960;50.908;4.204;2023-02-28T04:44:00;0.10;99.90
15717;DHT22;7960;50.908;4.204;2023-02-28T04:46:27;0.00;99.90
15717;DHT22;7960;50.908;4.204;2023-02-28T04:48:54;0.10;99.90
15717;DHT22;7960;50.908;4.204;2023-02-28T04:51:21;0.10;99.90
15717;DHT22;7960;50.908;4.204;2023-02-28T04:53:48;0.10;99.90
15717;DHT22;7960;50.908;4.204;2023-02-28T04:56:16;0.10;99.90
15717;DHT22;7960;50.908;4.204;2023-02-28T04:58:45;0.20;99.90
15717;DHT22;7960;50.908;4.204;2023-02-28T05:01:18;0.20;99.90
15717;DHT22;7960;50.908;4.204;2023-02-28T05:03:46;0.10;99.90
15717;DHT22;7960;50.908;4.204;2023-02-28T05:06:13;0.20;99.90
15717;DHT22;7960;50.908;4.204;2023-02-28T05:08:40;0.20;99.90
15717;DHT22;7960;50.908;4.204;2023-02-28T05:11:14;0.20;99.90
15717;DHT22;7960;50.908;4.204;2023-02-28T05:13:41;0.30;99.90
15717;DHT22;7960;50.908;4.204;2023-02-28T05:16:09;0.30;99.90
15717;DHT22;7960;50.908;4.204;2023-02-28T05:18:36;0.40;99.90
15717;DHT22;7960;50.908;4.204;2023-02-28T05:21:03;0.30;99.90
15717;DHT22;7960;50.908;4.204;2023-02-28T05:23:30;0.30;99.90
15717;DHT22;7960;50.908;4.204;2023-02-28T05:25:57;0.30;99.90
15717;DHT22;7960;50.908;4.204;2023-02-28T05:28:24;0.40;99.90
15717;DHT22;7960;50.908;4.204;2023-02-28T05:30:50;0.40;99.90
15717;DHT22;7960;50.908;4.204;2023-02-28T05:33:19;0.30;99.90
15717;DHT22;7960;50.908;4.204;2023-02-28T05:35:45;0.40;99.90
15717;DHT22;7960;50.908;4.204;2023-02-28T05:38:12;0.40;99.90
15717;DHT22;7960;50.908;4.204;2023-02-28T05:40:39;0.40;99.90
15717;DHT22;7960;50.908;4.204;2023-02-28T05:43:09;0.50;99.90
15717;DHT22;7960;50.908;4.204;2023-02-28T05:45:37;0.50;99.90
15717;DHT22;7960;50.908;4.204;2023-02-28T05:48:04;0.50;99.90
15717;DHT22;7960;50.908;4.204;2023-02-28T05:50:32;0.50;99.90
15717;DHT22;7960;50.908;4.204;2023-02-28T05:52:59;0.50;99.90
15717;DHT22;7960;50.908;4.204;2023-02-28T05:55:26;0.50;99.90
15717;DHT22;7960;50.908;4.204;2023-02-28T05:57:53;0.50;99.90
15717;DHT22;7960;50.908;4.204;2023-02-28T06:00:20;0.50;99.90
15717;DHT22;7960;50.908;4.204;2023-02-28T06:02:47;0.50;99.90
15717;DHT22;7960;50.908;4.204;2023-02-28T06:05:16;0.60;99.90
15717;DHT22;7960;50.908;4.204;2023-02-28T06:07:44;0.60;99.90
15717;DHT22;7960;50.908;4.204;2023-02-28T06:10:12;0.60;99.90
15717;DHT22;7960;50.908;4.204;2023-02-28T06:12:40;0.70;99.90
15717;DHT22;7960;50.908;4.204;2023-02-28T06:15:11;0.70;99.90
15717;DHT22;7960;50.908;4.204;2023-02-28T06:17:40;0.70;99.90
15717;DHT22;7960;50.908;4.204;2023-02-28T06:20:08;0.80;99.90
15717;DHT22;7960;50.908;4.204;2023-02-28T06:22:36;0.70;99.90
15717;DHT22;7960;50.908;4.204;2023-02-28T06:25:05;0.60;99.90
15717;DHT22;7960;50.908;4.204;2023-02-28T06:27:33;0.70;99.90
15717;DHT22;7960;50.908;4.204;2023-02-28T06:30:00;0.70;99.90
15717;DHT22;7960;50.908;4.204;2023-02-28T06:32:27;0.80;99.90
15717;DHT22;7960;50.908;4.204;2023-02-28T06:34:54;0.80;99.90
15717;DHT22;7960;50.908;4.204;2023-02-28T06:37:22;0.80;99.90
15717;DHT22;7960;50.908;4.204;2023-02-28T06:39:51;0.80;99.90
15717;DHT22;7960;50.908;4.204;2023-02-28T06:42:19;0.90;99.90
15717;DHT22;7960;50.908;4.204;2023-02-28T06:44:47;0.80;99.90
15717;DHT22;7960;50.908;4.204;2023-02-28T06:47:14;0.80;99.90
15717;DHT22;7960;50.908;4.204;2023-02-28T06:49:41;0.80;99.90
15717;DHT22;7960;50.908;4.204;2023-02-28T06:52:08;0.80;99.90
15717;DHT22;7960;50.908;4.204;2023-02-28T06:54:36;0.70;99.90
15717;DHT22;7960;50.908;4.204;2023-02-28T06:57:03;0.70;99.90
15717;DHT22;7960;50.908;4.204;2023-02-28T06:59:31;0.80;99.90
15717;DHT22;7960;50.908;4.204;2023-02-28T07:01:58;0.80;99.90
15717;DHT22;7960;50.908;4.204;2023-02-28T07:04:25;0.80;99.90
15717;DHT22;7960;50.908;4.204;2023-02-28T07:06:53;0.80;99.90
15717;DHT22;7960;50.908;4.204;2023-02-28T07:09:21;0.90;99.90
15717;DHT22;7960;50.908;4.204;2023-02-28T07:11:48;0.90;99.90
15717;DHT22;7960;50.908;4.204;2023-02-28T07:14:15;1.00;99.90
15717;DHT22;7960;50.908;4.204;2023-02-28T07:16:43;1.00;99.90
15717;DHT22;7960;50.908;4.204;2023-02-28T07:19:11;1.00;99.90
15717;DHT22;7960;50.908;4.204;2023-02-28T07:21:37;1.20;99.90
15717;DHT22;7960;50.908;4.204;2023-02-28T07:24:05;1.10;99.90
15717;DHT22;7960;50.908;4.204;2023-02-28T07:26:32;1.30;99.90
15717;DHT22;7960;50.908;4.204;2023-02-28T07:28:59;1.30;99.90
15717;DHT22;7960;50.908;4.204;2023-02-28T07:31:27;1.30;99.90
15717;DHT22;7960;50.908;4.204;2023-02-28T07:33:56;1.30;99.90
15717;DHT22;7960;50.908;4.204;2023-02-28T07:36:22;1.40;99.90
15717;DHT22;7960;50.908;4.204;2023-02-28T07:38:49;1.50;99.90
15717;DHT22;7960;50.908;4.204;2023-02-28T07:41:17;1.50;99.90
15717;DHT22;7960;50.908;4.204;2023-02-28T07:43:44;1.50;99.90
15717;DHT22;7960;50.908;4.204;2023-02-28T07:46:13;1.50;99.90
15717;DHT22;7960;50.908;4.204;2023-02-28T07:48:41;1.50;99.90
15717;DHT22;7960;50.908;4.204;2023-02-28T07:51:09;1.50;99.90
15717;DHT22;7960;50.908;4.204;2023-02-28T07:53:36;1.60;99.90
15717;DHT22;7960;50.908;4.204;2023-02-28T07:56:04;1.60;99.90
15717;DHT22;7960;50.908;4.204;2023-02-28T07:58:31;1.80;99.90
15717;DHT22;7960;50.908;4.204;2023-02-28T08:01:06;1.90;99.90
15717;DHT22;7960;50.908;4.204;2023-02-28T08:03:33;2.10;99.90
15717;DHT22;7960;50.908;4.204;2023-02-28T08:06:01;2.20;99.90
15717;DHT22;7960;50.908;4.204;2023-02-28T08:08:30;2.10;99.90
15717;DHT22;7960;50.908;4.204;2023-02-28T08:10:58;2.10;99.90
15717;DHT22;7960;50.908;4.204;2023-02-28T08:13:30;2.10;99.90
15717;DHT22;7960;50.908;4.204;2023-02-28T08:15:57;2.20;99.90
15717;DHT22;7960;50.908;4.204;2023-02-28T08:18:26;2.10;99.90
15717;DHT22;7960;50.908;4.204;2023-02-28T08:20:53;2.40;99.90
15717;DHT22;7960;50.908;4.204;2023-02-28T08:23:20;2.40;99.90
15717;DHT22;7960;50.908;4.204;2023-02-28T08:25:54;2.30;99.90
15717;DHT22;7960;50.908;4.204;2023-02-28T08:28:21;2.50;99.90
15717;DHT22;7960;50.908;4.204;2023-02-28T08:30:48;2.50;99.90
15717;DHT22;7960;50.908;4.204;2023-02-28T08:33:15;2.50;99.90
15717;DHT22;7960;50.908;4.204;2023-02-28T08:35:42;2.50;99.90
15717;DHT22;7960;50.908;4.204;2023-02-28T08:38:09;2.50;99.90
15717;DHT22;7960;50.908;4.204;2023-02-28T08:40:36;2.60;99.90
15717;DHT22;7960;50.908;4.204;2023-02-28T08:43:05;2.70;99.90
15717;DHT22;7960;50.908;4.204;2023-02-28T08:45:32;2.90;99.90
15717;DHT22;7960;50.908;4.204;2023-02-28T08:47:58;2.90;99.90
15717;DHT22;7960;50.908;4.204;2023-02-28T08:50:25;3.00;99.90
15717;DHT22;7960;50.908;4.204;2023-02-28T08:52:52;3.00;98.90
15717;DHT22;7960;50.908;4.204;2023-02-28T08:55:19;3.20;97.90
15717;DHT22;7960;50.908;4.204;2023-02-28T08:57:46;3.50;97.40
15717;DHT22;7960;50.908;4.204;2023-02-28T09:00:15;3.60;96.70
15717;DHT22;7960;50.908;4.204;2023-02-28T09:02:42;3.70;96.30
15717;DHT22;7960;50.908;4.204;2023-02-28T09:05:09;3.80;95.70
15717;DHT22;7960;50.908;4.204;2023-02-28T09:07:36;3.90;95.10
15717;DHT22;7960;50.908;4.204;2023-02-28T09:10:03;4.10;94.90
15717;DHT22;7960;50.908;4.204;2023-02-28T09:12:33;4.20;94.80
15717;DHT22;7960;50.908;4.204;2023-02-28T09:15:01;4.40;94.30
15717;DHT22;7960;50.908;4.204;2023-02-28T09:17:29;4.60;94.00
15717;DHT22;7960;50.908;4.204;2023-02-28T09:19:56;4.80;93.20
15717;DHT22;7960;50.908;4.204;2023-02-28T09:22:23;5.00;92.70
15717;DHT22;7960;50.908;4.204;2023-02-28T09:24:50;5.30;92.10
15717;DHT22;7960;50.908;4.204;2023-02-28T09:27:17;5.50;91.50
15717;DHT22;7960;50.908;4.204;2023-02-28T09:29:44;5.40;89.80
15717;DHT22;7960;50.908;4.204;2023-02-28T09:32:11;5.30;88.00
15717;DHT22;7960;50.908;4.204;2023-02-28T09:34:39;5.40;87.90
15717;DHT22;7960;50.908;4.204;2023-02-28T09:37:06;5.50;86.90
15717;DHT22;7960;50.908;4.204;2023-02-28T09:39:33;5.60;85.50
15717;DHT22;7960;50.908;4.204;2023-02-28T09:42:01;5.70;84.60
15717;DHT22;7960;50.908;4.204;2023-02-28T09:44:33;5.60;84.30
15717;DHT22;7960;50.908;4.204;2023-02-28T09:47:07;5.50;83.70
15717;DHT22;7960;50.908;4.204;2023-02-28T09:49:39;5.60;83.70
15717;DHT22;7960;50.908;4.204;2023-02-28T09:52:11;5.80;83.00
15717;DHT22;7960;50.908;4.204;2023-02-28T09:54:39;5.80;81.40
15717;DHT22;7960;50.908;4.204;2023-02-28T09:57:08;6.00;81.80
15717;DHT22;7960;50.908;4.204;2023-02-28T09:59:44;6.20;82.00
15717;DHT22;7960;50.908;4.204;2023-02-28T10:02:30;6.20;81.50
15717;DHT22;7960;50.908;4.204;2023-02-28T10:05:09;6.20;79.60
15717;DHT22;7960;50.908;4.204;2023-02-28T10:07:51;6.30;80.00
15717;DHT22;7960;50.908;4.204;2023-02-28T10:10:24;6.30;79.40
15717;DHT22;7960;50.908;4.204;2023-02-28T10:12:54;6.40;78.70
15717;DHT22;7960;50.908;4.204;2023-02-28T10:15:24;6.50;77.80
15717;DHT22;7960;50.908;4.204;2023-02-28T10:17:56;6.90;77.20
15717;DHT22;7960;50.908;4.204;2023-02-28T10:20:26;6.70;74.70
15717;DHT22;7960;50.908;4.204;2023-02-28T10:22:58;6.80;73.90
15717;DHT22;7960;50.908;4.204;2023-02-28T10:25:33;6.80;73.90
15717;DHT22;7960;50.908;4.204;2023-02-28T10:28:05;6.90;73.40
15717;DHT22;7960;50.908;4.204;2023-02-28T10:30:38;6.80;72.20
15717;DHT22;7960;50.908;4.204;2023-02-28T10:33:16;6.80;72.70
15717;DHT22;7960;50.908;4.204;2023-02-28T10:35:45;6.80;72.80
15717;DHT22;7960;50.908;4.204;2023-02-28T10:38:18;7.00;73.60
15717;DHT22;7960;50.908;4.204;2023-02-28T10:40:45;7.00;73.70
15717;DHT22;7960;50.908;4.204;2023-02-28T10:43:21;7.10;73.20
15717;DHT22;7960;50.908;4.204;2023-02-28T10:45:58;7.10;71.90
15717;DHT22;7960;50.908;4.204;2023-02-28T10:48:30;7.20;71.80
15717;DHT22;7960;50.908;4.204;2023-02-28T10:51:00;7.30;71.40
15717;DHT22;7960;50.908;4.204;2023-02-28T10:53:39;7.50;70.20
15717;DHT22;7960;50.908;4.204;2023-02-28T10:56:16;7.40;69.40
15717;DHT22;7960;50.908;4.204;2023-02-28T10:58:51;7.60;68.90
15717;DHT22;7960;50.908;4.204;2023-02-28T11:01:20;7.30;66.40
15717;DHT22;7960;50.908;4.204;2023-02-28T11:03:48;7.40;66.80
15717;DHT22;7960;50.908;4.204;2023-02-28T11:06:20;7.30;65.80
15717;DHT22;7960;50.908;4.204;2023-02-28T11:08:50;6.90;66.00
15717;DHT22;7960;50.908;4.204;2023-02-28T11:11:18;6.90;66.00
15717;DHT22;7960;50.908;4.204;2023-02-28T11:13:47;7.20;66.00
15717;DHT22;7960;50.908;4.204;2023-02-28T11:16:16;7.20;65.20
15717;DHT22;7960;50.908;4.204;2023-02-28T11:18:47;7.30;65.30
15717;DHT22;7960;50.908;4.204;2023-02-28T11:21:23;7.30;63.70
15717;DHT22;7960;50.908;4.204;2023-02-28T11:23:54;7.20;63.60
15717;DHT22;7960;50.908;4.204;2023-02-28T11:26:39;7.40;62.90
15717;DHT22;7960;50.908;4.204;2023-02-28T11:29:12;7.60;64.60
15717;DHT22;7960;50.908;4.204;2023-02-28T11:31:42;7.90;63.60
15717;DHT22;7960;50.908;4.204;2023-02-28T11:34:25;8.00;62.90
15717;DHT22;7960;50.908;4.204;2023-02-28T11:36:56;7.90;62.70
15717;DHT22;7960;50.908;4.204;2023-02-28T11:39:24;8.00;62.20
15717;DHT22;7960;50.908;4.204;2023-02-28T11:44:57;8.30;62.80
15717;DHT22;7960;50.908;4.204;2023-02-28T11:47:31;8.10;61.80
15717;DHT22;7960;50.908;4.204;2023-02-28T11:50:11;8.10;62.40
15717;DHT22;7960;50.908;4.204;2023-02-28T11:52:47;7.90;60.60
15717;DHT22;7960;50.908;4.204;2023-02-28T11:55:19;7.60;59.50
15717;DHT22;7960;50.908;4.204;2023-02-28T11:58:03;7.70;60.40
15717;DHT22;7960;50.908;4.204;2023-02-28T12:00:48;7.50;60.40
15717;DHT22;7960;50.908;4.204;2023-02-28T12:03:27;7.50;61.10
15717;DHT22;7960;50.908;4.204;2023-02-28T12:06:03;7.80;62.20
15717;DHT22;7960;50.908;4.204;2023-02-28T12:08:47;7.90;61.70
15717;DHT22;7960;50.908;4.204;2023-02-28T12:11:22;8.00;61.70
15717;DHT22;7960;50.908;4.204;2023-02-28T12:14:00;8.30;60.90
15717;DHT22;7960;50.908;4.204;2023-02-28T12:16:54;8.30;60.60
15717;DHT22;7960;50.908;4.204;2023-02-28T12:19:26;8.70;60.00
15717;DHT22;7960;50.908;4.204;2023-02-28T12:22:16;8.30;59.60
15717;DHT22;7960;50.908;4.204;2023-02-28T12:25:21;8.10;59.10
15717;DHT22;7960;50.908;4.204;2023-02-28T12:27:51;8.50;59.80
15717;DHT22;7960;50.908;4.204;2023-02-28T12:30:23;9.20;58.50
15717;DHT22;7960;50.908;4.204;2023-02-28T12:32:54;9.20;56.80
15717;DHT22;7960;50.908;4.204;2023-02-28T12:35:26;9.10;57.10
15717;DHT22;7960;50.908;4.204;2023-02-28T12:37:58;8.90;56.50
15717;DHT22;7960;50.908;4.204;2023-02-28T12:40:40;9.20;58.10
15717;DHT22;7960;50.908;4.204;2023-02-28T12:43:10;9.60;57.10
15717;DHT22;7960;50.908;4.204;2023-02-28T12:45:41;9.20;55.90
15717;DHT22;7960;50.908;4.204;2023-02-28T12:48:15;9.30;57.60
15717;DHT22;7960;50.908;4.204;2023-02-28T12:50:43;9.50;56.50
15717;DHT22;7960;50.908;4.204;2023-02-28T12:53:14;9.20;56.10
15717;DHT22;7960;50.908;4.204;2023-02-28T12:55:49;8.70;55.20
15717;DHT22;7960;50.908;4.204;2023-02-28T12:58:23;9.00;55.80
15717;DHT22;7960;50.908;4.204;2023-02-28T13:01:15;10.20;55.30
15717;DHT22;7960;50.908;4.204;2023-02-28T13:04:16;9.80;54.50
15717;DHT22;7960;50.908;4.204;2023-02-28T13:10:03;10.50;53.80
15717;DHT22;7960;50.908;4.204;2023-02-28T13:12:34;10.50;51.50
15717;DHT22;7960;50.908;4.204;2023-02-28T13:15:06;9.70;52.10
15717;DHT22;7960;50.908;4.204;2023-02-28T13:17:39;9.80;53.80
15717;DHT22;7960;50.908;4.204;2023-02-28T13:20:16;10.40;53.80
15717;DHT22;7960;50.908;4.204;2023-02-28T13:22:45;10.00;52.10
15717;DHT22;7960;50.908;4.204;2023-02-28T13:25:52;10.20;51.50
15717;DHT22;7960;50.908;4.204;2023-02-28T13:31:31;10.10;49.70
15717;DHT22;7960;50.908;4.204;2023-02-28T13:34:05;10.40;49.90
15717;DHT22;7960;50.908;4.204;2023-02-28T13:36:38;10.40;50.40
15717;DHT22;7960;50.908;4.204;2023-02-28T13:39:48;10.40;50.60
15717;DHT22;7960;50.908;4.204;2023-02-28T13:42:34;10.70;50.90
15717;DHT22;7960;50.908;4.204;2023-02-28T13:45:25;10.70;49.70
15717;DHT22;7960;50.908;4.204;2023-02-28T13:47:54;10.90;49.70
15717;DHT22;7960;50.908;4.204;2023-02-28T13:50:26;11.40;50.10
15717;DHT22;7960;50.908;4.204;2023-02-28T13:56:07;12.00;47.60
15717;DHT22;7960;50.908;4.204;2023-02-28T13:58:51;11.80;46.10
15717;DHT22;7960;50.908;4.204;2023-02-28T14:04:37;11.20;46.80
15717;DHT22;7960;50.908;4.204;2023-02-28T14:07:08;11.20;47.00
15717;DHT22;7960;50.908;4.204;2023-02-28T14:09:38;10.30;45.80
15717;DHT22;7960;50.908;4.204;2023-02-28T14:12:57;10.50;46.40
15717;DHT22;7960;50.908;4.204;2023-02-28T14:15:41;10.40;46.20
15717;DHT22;7960;50.908;4.204;2023-02-28T14:18:31;11.00;47.50
15717;DHT22;7960;50.908;4.204;2023-02-28T14:21:09;12.10;47.10
15717;DHT22;7960;50.908;4.204;2023-02-28T14:30:14;11.40;46.50
15717;DHT22;7960;50.908;4.204;2023-02-28T14:32:51;10.70;45.50
15717;DHT22;7960;50.908;4.204;2023-02-28T14:35:38;11.00;46.60
15717;DHT22;7960;50.908;4.204;2023-02-28T14:38:14;11.30;46.80
15717;DHT22;7960;50.908;4.204;2023-02-28T14:40:45;11.40;46.40
15717;DHT22;7960;50.908;4.204;2023-02-28T14:43:20;10.90;45.70
15717;DHT22;7960;50.908;4.204;2023-02-28T14:45:52;11.10;45.80
15717;DHT22;7960;50.908;4.204;2023-02-28T14:48:20;11.20;45.90
15717;DHT22;7960;50.908;4.204;2023-02-28T14:50:49;10.80;45.20
15717;DHT22;7960;50.908;4.204;2023-02-28T14:53:20;10.80;45.10
15717;DHT22;7960;50.908;4.204;2023-02-28T14:55:48;10.90;45.40
15717;DHT22;7960;50.908;4.204;2023-02-28T14:58:23;12.20;46.40
15717;DHT22;7960;50.908;4.204;2023-02-28T15:00:53;12.50;45.40
15717;DHT22;7960;50.908;4.204;2023-02-28T15:03:23;12.30;45.40
15717;DHT22;7960;50.908;4.204;2023-02-28T15:05:52;12.70;45.80
15717;DHT22;7960;50.908;4.204;2023-02-28T15:08:19;12.60;45.00
15717;DHT22;7960;50.908;4.204;2023-02-28T15:10:52;12.70;44.80
15717;DHT22;7960;50.908;4.204;2023-02-28T15:13:20;12.40;44.20
15717;DHT22;7960;50.908;4.204;2023-02-28T15:15:52;12.50;44.70
15717;DHT22;7960;50.908;4.204;2023-02-28T15:18:28;12.70;45.10
15717;DHT22;7960;50.908;4.204;2023-02-28T15:20:59;12.30;45.40
15717;DHT22;7960;50.908;4.204;2023-02-28T15:23:29;11.80;45.00
15717;DHT22;7960;50.908;4.204;2023-02-28T15:25:57;11.20;44.50
15717;DHT22;7960;50.908;4.204;2023-02-28T15:28:24;11.80;46.10
15717;DHT22;7960;50.908;4.204;2023-02-28T15:30:56;11.90;45.20
15717;DHT22;7960;50.908;4.204;2023-02-28T15:33:25;11.90;45.20
15717;DHT22;7960;50.908;4.204;2023-02-28T15:36:05;11.50;45.00
15717;DHT22;7960;50.908;4.204;2023-02-28T15:38:34;11.30;45.80
15717;DHT22;7960;50.908;4.204;2023-02-28T15:41:01;10.80;46.30
15717;DHT22;7960;50.908;4.204;2023-02-28T15:43:34;10.80;46.50
15717;DHT22;7960;50.908;4.204;2023-02-28T15:46:04;10.50;47.20
15717;DHT22;7960;50.908;4.204;2023-02-28T15:48:34;10.00;47.80
15717;DHT22;7960;50.908;4.204;2023-02-28T15:51:06;9.40;50.00
15717;DHT22;7960;50.908;4.204;2023-02-28T15:53:36;9.00;51.10
15717;DHT22;7960;50.908;4.204;2023-02-28T15:56:05;8.90;51.70
15717;DHT22;7960;50.908;4.204;2023-02-28T15:58:35;8.40;52.60
15717;DHT22;7960;50.908;4.204;2023-02-28T16:01:24;8.30;53.00
15717;DHT22;7960;50.908;4.204;2023-02-28T16:03:54;8.60;54.20
15717;DHT22;7960;50.908;4.204;2023-02-28T16:06:42;8.60;54.40
15717;DHT22;7960;50.908;4.204;2023-02-28T16:09:11;8.60;54.00
15717;DHT22;7960;50.908;4.204;2023-02-28T16:11:41;8.50;54.90
15717;DHT22;7960;50.908;4.204;2023-02-28T16:14:15;8.20;54.80
15717;DHT22;7960;50.908;4.204;2023-02-28T16:16:45;8.00;55.40
15717;DHT22;7960;50.908;4.204;2023-02-28T16:19:13;7.70;55.50
15717;DHT22;7960;50.908;4.204;2023-02-28T16:21:40;7.60;56.20
15717;DHT22;7960;50.908;4.204;2023-02-28T16:24:07;7.20;56.80
15717;DHT22;7960;50.908;4.204;2023-02-28T16:26:35;7.20;57.90
15717;DHT22;7960;50.908;4.204;2023-02-28T16:29:03;7.00;58.70
15717;DHT22;7960;50.908;4.204;2023-02-28T16:31:31;6.70;58.80
15717;DHT22;7960;50.908;4.204;2023-02-28T16:34:01;6.40;58.90
15717;DHT22;7960;50.908;4.204;2023-02-28T16:36:29;6.50;59.50
15717;DHT22;7960;50.908;4.204;2023-02-28T16:38:56;6.60;60.00
15717;DHT22;7960;50.908;4.204;2023-02-28T16:41:25;6.80;60.40
15717;DHT22;7960;50.908;4.204;2023-02-28T16:43:54;6.80;61.20
15717;DHT22;7960;50.908;4.204;2023-02-28T16:46:24;6.70;61.20
15717;DHT22;7960;50.908;4.204;2023-02-28T16:48:53;6.70;61.30
15717;DHT22;7960;50.908;4.204;2023-02-28T16:51:21;6.60;62.00
15717;DHT22;7960;50.908;4.204;2023-02-28T16:53:48;6.50;62.40
15717;DHT22;7960;50.908;4.204;2023-02-28T16:56:17;6.40;62.70